createdAt,value
2022-09-30T00:02:44.031Z,2.67
2022-09-30T00:08:14.978Z,3.13
2022-09-30T00:13:48.719Z,2.90
2022-09-30T00:19:19.889Z,3.17
2022-09-30T00:24:51.148Z,3.17
2022-09-30T00:30:22.281Z,3.00
2022-09-30T00:35:53.395Z,3.00
2022-09-30T00:41:25.355Z,3.22
2022-09-30T00:46:56.602Z,2.97
2022-09-30T00:52:28.399Z,3.20
2022-09-30T00:58:00.747Z,3.03
2022-09-30T01:03:34.548Z,3.15
2022-09-30T01:09:05.511Z,3.15
2022-09-30T01:14:38.017Z,2.67
2022-09-30T01:20:18.602Z,2.97
2022-09-30T01:26:01.588Z,3.05
2022-09-30T01:31:47.483Z,3.45
2022-09-30T01:37:21.413Z,3.03
2022-09-30T01:43:07.667Z,3.17
2022-09-30T01:48:54.000Z,3.05
2022-09-30T01:54:32.703Z,3.35
2022-09-30T02:00:07.949Z,2.92
2022-09-30T02:05:54.367Z,3.13
2022-09-30T02:11:28.082Z,3.27
2022-09-30T02:17:08.220Z,3.15
2022-09-30T02:22:50.826Z,3.47
2022-09-30T02:28:27.616Z,3.08
2022-09-30T02:34:07.073Z,3.13
2022-09-30T02:39:42.782Z,3.15
2022-09-30T02:45:17.176Z,2.88
2022-09-30T02:50:55.184Z,2.90
2022-09-30T02:56:46.896Z,2.85
2022-09-30T03:02:18.190Z,3.17
2022-09-30T03:07:49.100Z,3.08
2022-09-30T03:13:35.237Z,2.95
2022-09-30T03:19:37.257Z,3.28
2022-09-30T03:25:45.518Z,3.20
2022-09-30T03:31:16.535Z,3.13
2022-09-30T03:37:04.404Z,3.38
2022-09-30T03:42:38.775Z,3.17
2022-09-30T03:48:12.083Z,2.92
2022-09-30T03:53:44.337Z,2.95
2022-09-30T03:59:28.633Z,3.30
2022-09-30T04:04:59.764Z,3.15
2022-09-30T04:10:31.008Z,2.80
2022-09-30T04:16:02.266Z,2.85
2022-09-30T04:21:33.477Z,2.95
2022-09-30T04:27:04.520Z,2.78
2022-09-30T04:32:35.703Z,2.70
2022-09-30T04:38:07.607Z,2.50
2022-09-30T04:43:38.517Z,2.83
2022-09-30T04:49:09.756Z,3.00
2022-09-30T04:54:40.937Z,2.42
2022-09-30T05:00:12.720Z,2.95
2022-09-30T05:05:44.668Z,2.78
2022-09-30T05:11:18.665Z,2.50
2022-09-30T05:16:49.889Z,2.58
2022-09-30T05:22:20.758Z,2.80
2022-09-30T05:27:52.103Z,2.58
2022-09-30T05:33:23.431Z,3.40
2022-09-30T05:38:54.857Z,2.60
2022-09-30T05:44:26.101Z,2.35
2022-09-30T05:49:57.140Z,2.38
2022-09-30T05:55:28.282Z,2.67
2022-09-30T06:01:13.180Z,2.33
2022-09-30T06:06:44.466Z,2.78
2022-09-30T06:12:16.226Z,2.88
2022-09-30T06:17:55.237Z,2.70
2022-09-30T06:23:26.587Z,2.60
2022-09-30T06:28:57.917Z,2.67
2022-09-30T06:34:28.717Z,2.35
2022-09-30T06:39:59.662Z,2.45
2022-09-30T06:45:33.501Z,2.45
2022-09-30T06:51:04.782Z,2.40
2022-09-30T06:56:37.110Z,2.53
2022-09-30T07:02:11.430Z,2.60
2022-09-30T07:07:44.231Z,2.42
2022-09-30T07:13:14.983Z,2.70
2022-09-30T07:18:46.247Z,2.55
2022-09-30T07:24:18.089Z,2.65
2022-09-30T07:30:10.185Z,2.50
2022-09-30T07:35:40.342Z,2.40
2022-09-30T07:41:17.143Z,2.53
2022-09-30T07:46:48.240Z,2.65
2022-09-30T07:52:19.472Z,2.33
2022-09-30T07:57:50.739Z,2.53
2022-09-30T08:03:21.792Z,2.42
2022-09-30T08:08:55.289Z,2.40
2022-09-30T08:14:28.184Z,2.70
2022-09-30T08:19:59.414Z,2.50
2022-09-30T08:25:30.479Z,2.78
2022-09-30T08:31:10.676Z,2.38
2022-09-30T08:36:41.725Z,2.88
2022-09-30T08:42:49.650Z,2.25
2022-09-30T08:48:50.254Z,2.47
2022-09-30T08:54:25.044Z,2.97
2022-09-30T08:59:59.899Z,2.80
2022-09-30T09:06:09.097Z,2.47
2022-09-30T09:11:49.205Z,2.47
2022-09-30T09:18:22.676Z,2.47
2022-09-30T09:23:57.779Z,2.50
2022-09-30T09:29:53.960Z,2.20
2022-09-30T09:35:50.429Z,2.50
2022-09-30T09:41:39.377Z,2.58
2022-09-30T09:47:17.416Z,2.35
2022-09-30T09:53:07.058Z,2.33
2022-09-30T09:58:41.924Z,2.38
2022-09-30T10:04:27.555Z,2.50
2022-09-30T10:10:23.367Z,2.60
2022-09-30T10:15:57.859Z,2.60
2022-09-30T10:27:00.165Z,2.53
2022-09-30T10:32:32.193Z,2.35
2022-09-30T10:38:03.519Z,2.17
2022-09-30T10:43:48.188Z,2.22
2022-09-30T10:49:22.352Z,2.20
2022-09-30T10:54:55.443Z,2.30
2022-09-30T11:06:00.715Z,2.17
2022-09-30T11:11:55.597Z,2.08
2022-09-30T11:17:38.870Z,1.85
2022-09-30T11:23:29.984Z,2.33
2022-09-30T11:29:11.993Z,1.98
2022-09-30T11:34:52.108Z,2.40
2022-09-30T11:40:31.997Z,2.15
2022-09-30T11:46:23.450Z,2.05
2022-09-30T11:51:59.147Z,2.20
2022-09-30T11:57:41.546Z,2.20
2022-09-30T12:03:39.936Z,2.05
2022-09-30T12:09:25.183Z,2.17
2022-09-30T12:15:07.739Z,2.10
2022-09-30T12:20:44.861Z,1.88
2022-09-30T12:26:16.623Z,2.13
2022-09-30T12:31:52.029Z,1.80
2022-09-30T12:37:51.699Z,2.05
2022-09-30T12:44:06.819Z,1.80
2022-09-30T12:49:40.412Z,1.75
2022-09-30T12:55:28.247Z,1.80
2022-09-30T13:01:29.710Z,1.90
2022-09-30T13:07:01.082Z,2.05
2022-09-30T13:12:43.938Z,2.20
2022-09-30T13:18:21.145Z,1.73
2022-09-30T13:23:57.154Z,1.88
2022-09-30T13:29:35.397Z,2.15
2022-09-30T13:35:32.580Z,1.80
2022-09-30T13:41:12.282Z,1.83
2022-09-30T13:46:52.323Z,1.90
2022-09-30T13:52:32.981Z,1.90
2022-09-30T13:58:23.323Z,2.10
2022-09-30T14:04:23.546Z,1.88
2022-09-30T14:10:09.605Z,1.73
2022-09-30T14:16:19.327Z,2.15
2022-09-30T14:21:55.732Z,1.77
2022-09-30T14:27:45.748Z,1.90
2022-09-30T14:33:28.264Z,1.88
2022-09-30T14:39:00.829Z,1.70
2022-09-30T14:44:36.496Z,2.10
2022-09-30T14:50:31.636Z,2.05
2022-09-30T14:56:05.432Z,1.95
2022-09-30T15:01:37.835Z,1.88
2022-09-30T15:07:12.587Z,2.03
2022-09-30T15:12:43.900Z,1.77
2022-09-30T15:18:28.331Z,2.00
2022-09-30T15:24:02.973Z,2.03
2022-09-30T15:29:34.013Z,1.57
2022-09-30T15:35:20.887Z,2.00
2022-09-30T15:41:05.985Z,2.00
2022-09-30T15:46:40.098Z,2.00
2022-09-30T15:52:30.779Z,1.85
2022-09-30T15:58:02.885Z,2.08
2022-09-30T16:03:34.468Z,1.85
2022-09-30T16:09:18.693Z,1.98
2022-09-30T16:14:55.553Z,1.88
2022-09-30T16:20:27.069Z,2.10
2022-09-30T16:26:17.215Z,1.80
2022-09-30T16:31:50.563Z,2.08
2022-09-30T16:37:22.107Z,2.40
2022-09-30T16:42:55.098Z,2.03
2022-09-30T16:48:27.423Z,1.88
2022-09-30T16:53:58.715Z,2.25
2022-09-30T16:59:32.777Z,2.22
2022-09-30T17:05:04.715Z,2.38
2022-09-30T17:10:36.168Z,2.15
2022-09-30T17:16:07.407Z,1.77
2022-09-30T17:21:38.624Z,2.30
2022-09-30T17:27:09.957Z,2.15
2022-09-30T17:32:42.541Z,2.25
2022-09-30T17:38:14.017Z,2.03
2022-09-30T17:43:48.802Z,2.50
2022-09-30T17:49:23.993Z,2.05
2022-09-30T17:54:57.272Z,2.22
2022-09-30T18:00:28.983Z,2.20
2022-09-30T18:06:00.327Z,2.42
2022-09-30T18:11:31.895Z,2.17
2022-09-30T18:17:05.832Z,2.45
2022-09-30T18:22:37.164Z,2.70
2022-09-30T18:28:11.279Z,2.40
2022-09-30T18:33:42.668Z,2.55
2022-09-30T18:39:13.713Z,2.22
2022-09-30T18:44:44.904Z,2.80
2022-09-30T18:50:18.398Z,2.72
2022-09-30T18:55:49.836Z,2.92
2022-09-30T19:01:21.475Z,2.67
2022-09-30T19:06:52.945Z,3.10
2022-09-30T19:12:27.786Z,2.55
2022-09-30T19:18:00.127Z,3.10
2022-09-30T19:23:32.266Z,3.00
2022-09-30T19:29:07.889Z,2.80
2022-09-30T19:34:39.659Z,3.08
2022-09-30T19:40:20.906Z,2.60
2022-09-30T19:45:58.439Z,2.80
2022-09-30T19:51:31.280Z,3.47
2022-09-30T19:57:02.539Z,3.40
2022-09-30T20:02:35.263Z,3.03
2022-09-30T20:08:06.643Z,2.97
2022-09-30T20:13:38.296Z,2.97
2022-09-30T20:19:10.513Z,3.03
2022-09-30T20:24:42.024Z,3.20
2022-09-30T20:30:13.462Z,3.42
2022-09-30T20:35:44.705Z,3.15
2022-09-30T20:41:15.594Z,2.90
2022-09-30T20:46:46.568Z,3.00
2022-09-30T20:52:18.353Z,3.17
2022-09-30T20:57:49.659Z,3.50
2022-09-30T21:03:21.893Z,3.25
2022-09-30T21:08:53.814Z,3.30
2022-09-30T21:14:24.779Z,3.08
2022-09-30T21:19:56.200Z,3.15
2022-09-30T21:25:27.307Z,3.08
2022-09-30T21:30:59.128Z,3.30
2022-09-30T21:36:32.465Z,3.05
2022-09-30T21:47:35.167Z,3.28
2022-09-30T21:53:06.189Z,2.95
2022-09-30T21:58:37.726Z,3.50
2022-09-30T22:04:09.447Z,3.03
2022-09-30T22:09:41.110Z,3.10
2022-09-30T22:15:12.081Z,3.53
2022-09-30T22:20:46.861Z,3.65
2022-09-30T22:26:19.613Z,3.92
2022-09-30T22:31:50.558Z,3.40
2022-09-30T22:37:40.787Z,4.22
2022-09-30T22:43:12.047Z,4.25
2022-09-30T22:48:44.498Z,4.22
2022-09-30T22:54:15.591Z,4.13
2022-09-30T22:59:47.799Z,4.10
2022-09-30T23:05:18.904Z,3.72
2022-09-30T23:10:50.107Z,3.78
2022-09-30T23:16:21.357Z,3.88
2022-09-30T23:21:52.915Z,4.30
2022-09-30T23:27:24.052Z,4.22
2022-09-30T23:32:55.777Z,3.90
2022-09-30T23:38:27.891Z,4.30
2022-09-30T23:43:59.318Z,3.95
2022-09-30T23:49:33.419Z,4.85
2022-09-30T23:55:04.730Z,4.03
